Anahola, HI

6:54 AM HST on November 24, 2017 (GMT -1000)
Ka Hale Oma'oma'o Li'ili'i | | Change Station
Active Advisory: High Surf Warning Active Notice: High Surf Warning

Elev 192 ft 22.09 °N, 159.33 °W | Updated 60 seconds ago

Mostly Cloudy
Mostly Cloudy
67.6 °F
Feels Like 67.6 °F
N
0.0
Wind Variable Wind from East

Today
High -- | Low -- °F
--% Chance of Precip.
Yesterday
High -- | Low -- °F
Precip. -- in
Pressure 30.07 in
Visibility 10.0 miles
Clouds Few 3800 ft
Mostly Cloudy 6000 ft
Dew Point 63 °F
Humidity 85%
Rainfall 0.09 in
Snow Depth Not available.
6:55 AM 5:52 PM
Waxing Crescent, 31% visible
METAR PHLI 241553Z 03019G26KT 10SM FEW038 BKN060 21/14 A3008 RMK AO2 PK WND 04030/1502 RAE15 SLP183 P0000 T02060144
Pressure 30.07 in
Visibility 10.0 miles
Clouds Few 3800 ft
Mostly Cloudy 6000 ft
Dew Point 63 °F
Humidity 85%
Rainfall 0.09 in
Snow Depth Not available.
6:55 AM 5:52 PM
Waxing Crescent, 31% visible
METAR PHLI 241553Z 03019G26KT 10SM FEW038 BKN060 21/14 A3008 RMK AO2 PK WND 04030/1502 RAE15 SLP183 P0000 T02060144

Get Your Daily Forecast Email!

Thanks for signing up!

Be on the lookout for a verification email in your inbox.

You'll start receiving severe weather alerts in your inbox..

×

10-Day Weather Forecast

Almanac

Astronomy

Nov. 24, 2017 Rise Set
Actual Time
Civil Twilight
Nautical Twilight
Astronomical Twilight
Moon
Length of Visible Light
Length of Day
Tomorrow will be .
, % of the Moon is Illuminated

Today's Extremes

State Highs State Lows

Community

WunderPhotos

Category 6

Welcome to Category 6. This is the collective home for Weather Underground's featured writeups by Dr. Jeff Masters (right), Bob Henson (left), Chris Burt, and other regular contributors.

Nearby

Air Quality

  Air Quality AQ Index Pollutant
Not available.

Snow Depth

Station Depth Elevation

Earthquake Activity

City Distance Mag. Time & Date
Minimum magnitude displayed is 2.5.

Coastal Water Temperatures

Place Temperature

Stations

Nearby Weather Stations

Station Location Temp. Windchill Dew Point Humidity Wind Precip. Elev Updated Type
                   

Watches & Warnings

High Surf Warning
Issued: 3:38 AM HST Nov. 24, 2017 – National Weather Service

... High surf warning now in effect until 600 PM this evening...

* surf... 20 to 25 feet along north facing shores... and 10 to 15
feet along east facing shores of Niihau Kauai Oahu Molokai Maui
and The Big Island.

* Timing... through this evening.

* Impacts... high... expect ocean water occasionally sweeping
across portions of beaches... creating the potential for
impacts to coastal properties and infrastructure... including
roadways. In addition... expect very strong breaking waves and
strong currents. Breaking waves may occasionally impact
harbors making navigating The Harbor channel dangerous.

Precautionary/preparedness actions... stay well away from the
shoreline in the affected areas. Be prepared for Road closures.


Donaldson